LBSF Airport Information

Runway Information
Runway 09 Length 11811 ft width 147 ft Elevation 1739 ft Threshold N/A Heading 95
Runway 27 Length 11811 ft Width 147 ft Elevation 1744 ft Threshold N/A Heading 275
Airport Frequencies
Type APP Name APP Frequency 123.7 MHZ
Type ATIS Name ATIS Frequency 124.05 MHZ
Type TWR Name TWR Frequency 118.1 MHZ
Airport Navaids
Type NDB Name Bozhourishte Frequency 312 KHZ
Type NDB Name Sofia Frequency 375 KHZ
Type NDB Name Sofia Frequency 335 KHZ
Type NDB Name Sofia Frequency 529 KHZ
Type VOR-DME Name Sofia Frequency 112600 KHZ
Type NDB Name Sofia Frequency 350 KHZ
Airport Weather Information & NOTAM
ADDS - METARS form results

(2222 UTC 04 December 2022)
Data provider http://aviationweather.gov/metar/data/
 
METAR text: LBSF 042200Z AUTO 09012KT 9999 OVC049/// 04/03 Q1026 NOSIG
Conditions at: LBSF (SOFIA , BG) observed 2200 UTC 04 December 2022
Temperature: 4.0°C (39°F)
Dewpoint: 3.0°C (37°F) [RH = 93%]
Pressure (altimeter): 30.30 inches Hg (1026.0 mb)
Winds: from the E (90 degrees) at 14 MPH (12 knots; 6.2 m/s)
Visibility: 6 or more miles (10+ km)
Ceiling: 4900 feet AGL
Clouds: overcast cloud deck at 4900 feet AGL
Weather: no significant weather observed at this time

METAR text: LBSF 042130Z AUTO 09011KT 9999 -RA SCT054/// OVC086/// 04/03 Q1027 NOSIG
Conditions at: LBSF (SOFIA , BG) observed 2130 UTC 04 December 2022
Temperature: 4.0°C (39°F)
Dewpoint: 3.0°C (37°F) [RH = 93%]
Pressure (altimeter): 30.32 inches Hg (1027.0 mb)
Winds: from the E (90 degrees) at 13 MPH (11 knots; 5.7 m/s)
Visibility: 6 or more miles (10+ km)
Ceiling: 8600 feet AGL
Clouds: scattered clouds at 5400 feet AGL
overcast cloud deck at 8600 feet AGL
Weather: -RA  (light rain)

Forecast for: LBSF (SOFIA , BG)
Text: TAF LBSF 041700Z 0418/0518 09012KT 9999 SCT015 BKN030
Forecast period: 1800 UTC 04 December 2022 to 1800 UTC 05 December 2022
Forecast type: FROM: standard forecast or significant change
Winds: from the E (90 degrees) at 14 MPH (12 knots; 6.2 m/s)
Visibility: 6 or more miles (10+ km)
Ceiling: 3000 feet AGL
Clouds: scattered clouds at 1500 feet AGL
broken clouds at 3000 feet AGL
Weather: no significant weather forecast for this period
Text: TEMPO 0421/0504 3000 RA SCT005 BKN010 OVC020
Forecast period: 2100 UTC 04 December 2022 to 0400 UTC 05 December 2022
Forecast type: TEMPORARY: The following changes expected for less than half the time period
Visibility: 1.86 miles (2.99 km)
Ceiling: 1000 feet AGL
Clouds: scattered clouds at 500 feet AGL
broken clouds at 1000 feet AGL
overcast cloud deck at 2000 feet AGL
Weather: RA  (moderate rain)